Time;durP1;ratioP1;P1;durP2;ratioP2;P2;SDS_P1;SDS_P2;PMS_P1;PMS_P2;Temp;Humidity;BMP_temperature;BMP_pressure;BME280_temperature;BME280_humidity;BME280_pressure;Samples;Min_cycle;Max_cycle;Signal;HPM_P1;HPM_P2
2022/04/11 00:00:42;;;;;;;1.70;0.65;;;9.60;43.00;;;;;;2644020;51;21094;-84
2022/04/11 00:03:08;;;;;;;2.28;0.82;;;9.60;42.90;;;;;;2395171;52;20911;-84
2022/04/11 00:05:34;;;;;;;2.10;0.65;;;9.60;42.90;;;;;;2405387;52;21548;-85
2022/04/11 00:08:01;;;;;;;2.78;0.73;;;9.60;42.90;;;;;;2641315;51;20926;-85
2022/04/11 00:10:27;;;;;;;1.85;0.70;;;9.60;42.80;;;;;;2642987;51;21002;-84
2022/04/11 00:13:04;;;;;;;2.42;0.82;;;9.60;42.80;;;;;;2649235;51;21804;-85
2022/04/11 00:15:34;;;;;;;2.05;0.70;;;9.60;42.70;;;;;;2661510;52;20991;-84
2022/04/11 00:18:02;;;;;;;2.78;0.90;;;9.70;42.80;;;;;;2662225;52;20923;-85
2022/04/11 00:20:29;;;;;;;2.30;0.95;;;9.70;42.80;;;;;;2404597;52;20907;-85
2022/04/11 00:22:56;;;;;;;2.60;0.90;;;9.70;42.80;;;;;;2663088;52;20991;-86
2022/04/11 00:25:23;;;;;;;2.00;0.90;;;9.70;42.60;;;;;;2404566;52;21030;-86
2022/04/11 00:27:49;;;;;;;2.62;0.80;;;9.70;42.60;;;;;;2662568;52;21013;-85
2022/04/11 00:30:16;;;;;;;2.75;1.00;;;9.80;42.60;;;;;;2638438;51;20946;-85
2022/04/11 00:32:45;;;;;;;2.90;1.02;;;9.80;42.60;;;;;;2660271;51;20911;-85
2022/04/11 00:35:12;;;;;;;2.47;0.90;;;9.90;42.70;;;;;;2663516;52;20942;-84
2022/04/11 00:37:38;;;;;;;2.87;0.80;;;9.90;42.60;;;;;;2405872;52;20967;-84
2022/04/11 00:40:09;;;;;;;2.87;0.98;;;9.90;42.60;;;;;;2664004;52;20955;-85
2022/04/11 00:42:35;;;;;;;2.30;0.90;;;10.00;41.80;;;;;;2409595;52;20941;-85
2022/04/11 00:45:01;;;;;;;2.67;0.70;;;10.00;41.70;;;;;;2648830;51;20920;-86
2022/04/11 00:47:28;;;;;;;2.20;0.95;;;10.00;41.60;;;;;;2384606;52;20929;-85
2022/04/11 00:50:05;;;;;;;3.35;1.10;;;10.10;41.60;;;;;;2393613;52;21052;-85
2022/04/11 00:52:32;;;;;;;2.30;0.88;;;10.10;41.60;;;;;;2626958;52;21992;-85
2022/04/11 00:54:58;;;;;;;2.30;1.10;;;9.90;42.30;;;;;;2663805;52;20898;-84
2022/04/11 00:57:25;;;;;;;2.42;0.95;;;10.10;41.40;;;;;;2386277;52;20973;-86
2022/04/11 00:59:51;;;;;;;2.30;0.85;;;10.20;41.50;;;;;;2402739;52;20911;-85
2022/04/11 01:02:17;;;;;;;3.72;1.20;;;10.20;41.50;;;;;;2403636;52;20911;-85
2022/04/11 01:04:43;;;;;;;3.17;1.08;;;10.20;41.30;;;;;;2660703;52;21386;-84
2022/04/11 01:07:12;;;;;;;1.87;0.88;;;10.30;41.40;;;;;;2397225;52;21563;-86
2022/04/11 01:09:40;;;;;;;3.83;1.00;;;10.30;41.40;;;;;;2645670;51;20887;-85
2022/04/11 01:12:07;;;;;;;2.70;1.05;;;10.30;41.30;;;;;;2647326;51;20929;-84
2022/04/11 01:14:33;;;;;;;2.22;0.80;;;10.30;41.30;;;;;;2391718;53;20954;-85
2022/04/11 01:16:59;;;;;;;3.85;1.10;;;10.30;41.20;;;;;;2663260;52;20996;-85
2022/04/11 01:19:26;;;;;;;2.58;1.05;;;10.30;41.20;;;;;;2394789;52;20881;-84
2022/04/11 01:21:52;;;;;;;2.83;1.05;;;10.30;41.20;;;;;;2396553;53;20974;-85
2022/04/11 01:24:19;;;;;;;3.10;1.12;;;10.40;41.20;;;;;;2405521;52;20985;-86
2022/04/11 01:26:46;;;;;;;1.92;0.82;;;10.40;41.20;;;;;;2409185;52;21006;-85
2022/04/11 01:29:12;;;;;;;2.58;1.00;;;10.40;41.20;;;;;;2633713;51;20942;-85
2022/04/11 01:31:39;;;;;;;2.20;0.95;;;10.40;41.10;;;;;;2658996;52;20935;-84
2022/04/11 01:34:06;;;;;;;2.10;1.00;;;10.50;41.10;;;;;;2382240;53;20917;-85
2022/04/11 01:36:32;;;;;;;2.75;1.17;;;10.40;41.10;;;;;;2648422;51;20946;-84
2022/04/11 01:38:58;;;;;;;3.08;1.10;;;10.50;41.20;;;;;;2643926;51;20990;-85
2022/04/11 01:41:24;;;;;;;3.80;1.17;;;10.50;41.10;;;;;;2662234;52;20932;-84
2022/04/11 01:43:51;;;;;;;3.12;1.30;;;10.50;41.10;;;;;;2631975;51;21498;-85
2022/04/11 01:46:17;;;;;;;2.30;1.00;;;10.50;41.00;;;;;;2661060;52;20923;-85
2022/04/11 01:48:44;;;;;;;3.17;1.30;;;10.50;41.00;;;;;;2661442;52;20923;-84
2022/04/11 01:51:11;;;;;;;3.03;1.17;;;10.50;40.90;;;;;;2662069;52;21433;-84
2022/04/11 01:53:38;;;;;;;3.45;1.50;;;10.50;40.90;;;;;;2403323;53;21413;-86
2022/04/11 01:56:05;;;;;;;4.53;1.45;;;10.50;40.90;;;;;;2383369;52;20985;-84
2022/04/11 01:58:31;;;;;;;3.12;1.00;;;10.50;40.80;;;;;;2661632;52;21028;-85
2022/04/11 02:00:58;;;;;;;2.90;1.10;;;10.50;40.80;;;;;;2661009;52;21050;-83
2022/04/11 02:03:26;;;;;;;3.72;1.00;;;10.60;40.90;;;;;;2660992;52;20907;-84
2022/04/11 02:05:52;;;;;;;4.10;1.60;;;10.60;40.80;;;;;;2403003;53;21407;-85
2022/04/11 02:08:19;;;;;;;2.75;1.27;;;10.60;40.80;;;;;;2661306;52;20899;-84
2022/04/11 02:10:46;;;;;;;4.07;1.30;;;10.60;40.80;;;;;;2661602;52;20979;-85
2022/04/11 02:13:12;;;;;;;3.22;1.30;;;10.60;40.80;;;;;;2402999;52;20903;-84
2022/04/11 02:15:38;;;;;;;4.45;1.25;;;10.60;40.70;;;;;;2402949;52;21043;-85
2022/04/11 02:18:05;;;;;;;4.07;1.45;;;10.60;40.70;;;;;;2659838;51;21034;-84
2022/04/11 02:20:31;;;;;;;5.12;2.33;;;10.60;40.70;;;;;;2661585;52;21719;-85
2022/04/11 02:22:59;;;;;;;4.10;2.03;;;10.60;40.70;;;;;;2402985;52;20903;-85
2022/04/11 02:25:31;;;;;;;4.35;1.45;;;10.60;40.70;;;;;;2403680;53;21249;-84
2022/04/11 02:27:58;;;;;;;3.53;1.30;;;10.60;40.60;;;;;;2652469;51;21446;-84
2022/04/11 02:30:25;;;;;;;3.15;1.10;;;10.70;40.60;;;;;;2386916;53;21195;-85
2022/04/11 02:32:51;;;;;;;3.70;1.30;;;10.70;40.60;;;;;;2403371;53;20915;-85
2022/04/11 02:35:18;;;;;;;2.03;0.98;;;10.70;40.60;;;;;;2661031;52;20975;-84
2022/04/11 02:37:45;;;;;;;4.35;1.20;;;10.70;40.60;;;;;;2402280;53;20907;-85
2022/04/11 02:40:12;;;;;;;2.90;0.88;;;10.60;40.50;;;;;;2661794;52;21568;-84
2022/04/11 02:42:41;;;;;;;3.70;1.20;;;10.70;40.60;;;;;;2403952;52;21109;-84
2022/04/11 02:45:08;;;;;;;2.12;0.98;;;10.60;40.40;;;;;;2403671;53;21509;-84
2022/04/11 02:47:35;;;;;;;2.45;1.12;;;10.60;40.50;;;;;;2383679;52;20918;-85
2022/04/11 02:50:01;;;;;;;2.67;1.20;;;10.60;40.40;;;;;;2405696;52;20947;-85
2022/04/11 02:52:29;;;;;;;4.65;1.30;;;10.60;40.40;;;;;;2664219;52;20918;-85
2022/04/11 02:54:56;;;;;;;2.50;1.20;;;10.60;40.40;;;;;;2405963;53;20923;-85
2022/04/11 02:57:25;;;;;;;3.12;1.20;;;10.60;40.40;;;;;;2406447;52;20926;-86
2022/04/11 02:59:51;;;;;;;2.50;1.02;;;10.60;40.40;;;;;;2665680;52;20927;-85
2022/04/11 03:02:18;;;;;;;3.58;1.05;;;10.60;40.40;;;;;;2665437;52;21425;-85
2022/04/11 03:04:44;;;;;;;2.97;1.23;;;10.60;40.40;;;;;;2664471;52;20955;-84
2022/04/11 03:07:11;;;;;;;3.35;1.05;;;10.60;40.30;;;;;;2663643;52;20999;-85
2022/04/11 03:09:38;;;;;;;3.35;1.40;;;10.60;40.30;;;;;;2406150;52;20997;-84
2022/04/11 03:12:05;;;;;;;2.50;1.15;;;10.60;40.30;;;;;;2632300;51;20934;-85
2022/04/11 03:14:32;;;;;;;3.67;1.45;;;10.60;40.30;;;;;;2401341;52;21823;-84
2022/04/11 03:16:58;;;;;;;3.90;1.00;;;10.60;40.20;;;;;;2386042;53;21020;-85
2022/04/11 03:19:25;;;;;;;3.90;1.10;;;10.60;40.30;;;;;;2661853;52;21006;-85
2022/04/11 03:21:52;;;;;;;2.97;1.35;;;10.50;40.20;;;;;;2648590;51;20942;-84
2022/04/11 03:24:18;;;;;;;3.08;1.20;;;10.50;40.10;;;;;;2633244;51;21037;-85
2022/04/11 03:26:44;;;;;;;2.90;1.17;;;10.50;40.10;;;;;;2389130;53;21243;-84
2022/04/11 03:29:10;;;;;;;3.65;1.67;;;10.50;40.10;;;;;;2661804;52;21006;-84
2022/04/11 03:31:37;;;;;;;6.30;2.40;;;10.50;40.10;;;;;;2661766;52;20923;-84
2022/04/11 03:34:03;;;;;;;5.70;2.58;;;10.50;40.20;;;;;;2660914;52;21002;-84
2022/04/11 03:36:30;;;;;;;7.18;3.30;;;10.40;40.20;;;;;;2637546;51;20891;-85
2022/04/11 03:38:56;;;;;;;4.60;1.83;;;10.40;40.20;;;;;;2652817;51;21394;-85
2022/04/11 03:41:23;;;;;;;4.00;1.83;;;10.30;40.20;;;;;;2660236;52;21806;-84
2022/04/11 03:43:49;;;;;;;5.60;2.40;;;10.30;40.30;;;;;;2659511;52;20931;-85
2022/04/11 03:46:16;;;;;;;6.07;2.47;;;10.20;40.40;;;;;;2660504;52;20923;-85
2022/04/11 03:48:43;;;;;;;8.27;3.87;;;10.10;40.30;;;;;;2659728;52;20927;-86
2022/04/11 03:51:09;;;;;;;8.57;3.97;;;10.00;40.30;;;;;;2397960;52;20919;-84
2022/04/11 03:53:35;;;;;;;8.55;3.50;;;10.00;40.40;;;;;;2386393;53;20978;-84
2022/04/11 03:56:02;;;;;;;6.10;2.70;;;9.90;41.30;;;;;;2388572;52;20982;-85
2022/04/11 03:58:29;;;;;;;5.95;2.60;;;9.80;41.20;;;;;;2644531;51;20891;-84
2022/04/11 04:00:59;;;;;;;7.15;2.53;;;9.50;41.10;;;;;;2375936;53;21877;-84
2022/04/11 04:03:26;;;;;;;4.32;2.00;;;9.60;41.30;;;;;;2657971;51;20904;-84
2022/04/11 04:05:52;;;;;;;4.30;1.50;;;9.60;41.50;;;;;;2659111;52;20975;-85
2022/04/11 04:08:18;;;;;;;3.30;1.40;;;9.40;41.40;;;;;;2380828;52;20960;-84
2022/04/11 04:10:45;;;;;;;4.93;1.30;;;9.30;41.50;;;;;;2659146;52;20958;-85
2022/04/11 04:13:12;;;;;;;2.90;1.15;;;9.20;41.50;;;;;;2397724;52;20974;-85
2022/04/11 04:15:38;;;;;;;3.00;1.05;;;9.20;41.60;;;;;;2400706;53;20975;-84
2022/04/11 04:18:05;;;;;;;1.73;0.90;;;9.10;41.70;;;;;;2403460;52;21437;-85
2022/04/11 04:20:32;;;;;;;2.55;1.12;;;9.00;41.80;;;;;;2391605;52;20904;-85
2022/04/11 04:22:58;;;;;;;2.20;1.00;;;8.90;41.80;;;;;;2400272;52;20943;-83
2022/04/11 04:25:27;;;;;;;2.10;0.90;;;8.80;41.80;;;;;;2654791;52;20914;-83
2022/04/11 04:27:53;;;;;;;2.83;0.90;;;8.70;41.90;;;;;;2657083;52;20935;-84
2022/04/11 04:30:20;;;;;;;3.08;1.25;;;8.70;42.00;;;;;;2640241;51;20941;-83
2022/04/11 04:32:48;;;;;;;2.75;0.98;;;8.60;42.00;;;;;;2644058;51;20943;-84
2022/04/11 04:35:14;;;;;;;3.20;1.10;;;8.50;42.00;;;;;;2630157;51;21480;-85
2022/04/11 04:37:40;;;;;;;3.50;1.05;;;8.40;42.10;;;;;;2661376;52;20966;-85
2022/04/11 04:40:08;;;;;;;1.98;0.88;;;8.30;42.10;;;;;;2402600;52;21421;-85
2022/04/11 04:42:36;;;;;;;2.65;1.15;;;8.20;42.10;;;;;;2403189;52;20910;-84
2022/04/11 04:45:05;;;;;;;4.57;1.60;;;8.10;42.10;;;;;;2659357;52;21035;-84
2022/04/11 04:47:31;;;;;;;3.35;1.48;;;8.00;42.20;;;;;;2658931;52;20919;-84
2022/04/11 04:49:58;;;;;;;3.45;1.70;;;8.00;42.20;;;;;;2381316;52;20974;-85
2022/04/11 04:52:24;;;;;;;3.67;1.67;;;7.90;42.40;;;;;;2630252;51;20977;-84
2022/04/11 04:54:50;;;;;;;3.97;1.75;;;7.80;42.50;;;;;;2659771;52;21067;-84
2022/04/11 04:57:16;;;;;;;4.03;1.70;;;7.70;42.40;;;;;;2658545;52;21861;-85
2022/04/11 04:59:43;;;;;;;3.35;1.58;;;7.70;42.60;;;;;;2659002;52;21409;-84
2022/04/11 05:02:09;;;;;;;4.50;2.00;;;7.60;42.70;;;;;;2631759;51;21309;-84
2022/04/11 05:04:37;;;;;;;3.30;1.75;;;7.50;42.80;;;;;;2657194;51;20888;-85
2022/04/11 05:07:06;;;;;;;4.05;2.28;;;7.50;42.90;;;;;;2658624;52;21007;-84
2022/04/11 05:09:32;;;;;;;4.05;1.87;;;7.40;42.90;;;;;;2401751;52;20914;-85
2022/04/11 05:11:58;;;;;;;4.15;1.87;;;7.30;42.90;;;;;;2402106;53;20982;-85
2022/04/11 05:14:25;;;;;;;4.30;2.10;;;7.30;43.00;;;;;;2631023;51;21984;-86
2022/04/11 05:16:52;;;;;;;3.55;2.03;;;7.20;43.00;;;;;;2402407;53;21500;-86
2022/04/11 05:19:18;;;;;;;5.20;1.80;;;7.10;43.10;;;;;;2402139;52;20919;-85
2022/04/11 05:21:44;;;;;;;4.18;1.80;;;7.10;43.40;;;;;;2659177;52;20955;-84
2022/04/11 05:24:11;;;;;;;3.75;2.10;;;7.00;43.40;;;;;;2659736;52;20907;-85
2022/04/11 05:26:37;;;;;;;4.70;1.90;;;7.00;43.50;;;;;;2402900;52;21042;-85
2022/04/11 05:29:04;;;;;;;3.42;1.75;;;6.90;43.60;;;;;;2403720;52;20969;-85
2022/04/11 05:31:30;;;;;;;3.95;1.70;;;6.90;43.70;;;;;;2660834;52;20958;-85
2022/04/11 05:33:56;;;;;;;3.28;1.62;;;6.90;43.80;;;;;;2404036;53;20927;-84
2022/04/11 05:36:23;;;;;;;4.87;2.37;;;6.90;43.90;;;;;;2654687;52;20946;-84
2022/04/11 05:38:50;;;;;;;3.70;1.62;;;6.90;44.00;;;;;;2659591;52;21512;-84
2022/04/11 05:41:16;;;;;;;3.17;1.50;;;6.90;44.20;;;;;;2659956;52;21011;-85
2022/04/11 05:43:43;;;;;;;3.35;1.52;;;6.80;44.20;;;;;;2658836;52;20931;-85
2022/04/11 05:46:09;;;;;;;2.70;1.40;;;6.80;44.30;;;;;;2402348;52;22068;-85
2022/04/11 05:48:35;;;;;;;2.85;1.12;;;6.80;44.30;;;;;;2659341;52;20935;-84
2022/04/11 05:51:02;;;;;;;2.97;1.27;;;6.80;44.40;;;;;;2398954;52;20981;-85
2022/04/11 05:53:28;;;;;;;2.80;1.30;;;6.80;44.50;;;;;;2387162;52;20896;-86
2022/04/11 05:55:55;;;;;;;3.20;1.10;;;6.80;44.50;;;;;;2402780;52;20911;-85
2022/04/11 05:58:21;;;;;;;2.45;1.02;;;6.80;44.60;;;;;;2395617;52;20977;-83
2022/04/11 06:00:50;;;;;;;3.17;1.20;;;6.80;44.70;;;;;;2617859;52;21388;-83
2022/04/11 06:03:16;;;;;;;7.60;3.17;;;6.80;44.80;;;;;;2661644;52;20919;-85
2022/04/11 06:05:43;;;;;;;10.82;3.90;;;6.80;44.90;;;;;;2404825;52;20946;-85
2022/04/11 06:08:09;;;;;;;10.02;4.57;;;6.80;45.00;;;;;;2659461;52;20946;-84
2022/04/11 06:10:36;;;;;;;8.13;3.72;;;6.80;45.10;;;;;;2642334;51;21009;-85
2022/04/11 06:13:03;;;;;;;7.43;2.92;;;6.90;45.30;;;;;;2392699;52;20914;-85
2022/04/11 06:15:29;;;;;;;5.75;2.50;;;6.90;45.30;;;;;;2396130;52;20939;-85
2022/04/11 06:17:56;;;;;;;3.22;1.40;;;6.90;45.40;;;;;;2646063;51;20934;-84
2022/04/11 06:20:22;;;;;;;3.45;1.45;;;7.00;45.40;;;;;;2382615;52;20949;-84
2022/04/11 06:22:49;;;;;;;3.33;1.58;;;7.00;45.50;;;;;;2661166;51;21048;-84
2022/04/11 06:25:16;;;;;;;2.83;1.10;;;7.00;45.60;;;;;;2650045;51;20958;-85
2022/04/11 06:27:42;;;;;;;1.85;1.10;;;7.10;45.80;;;;;;2392600;52;20900;-85
2022/04/11 06:30:09;;;;;;;2.10;1.10;;;7.10;45.80;;;;;;2639246;51;20988;-85
2022/04/11 06:32:35;;;;;;;3.42;1.20;;;7.20;46.00;;;;;;2659681;52;20931;-84
2022/04/11 06:35:02;;;;;;;2.72;1.30;;;7.20;46.10;;;;;;2651450;51;21057;-85
2022/04/11 06:37:28;;;;;;;3.67;1.50;;;7.30;46.30;;;;;;2403924;52;20951;-84
2022/04/11 06:39:55;;;;;;;4.05;1.40;;;7.40;46.40;;;;;;2658833;52;21101;-85
2022/04/11 06:42:21;;;;;;;2.60;1.20;;;7.50;46.60;;;;;;2631308;51;20933;-84
2022/04/11 06:44:47;;;;;;;3.28;1.37;;;7.60;46.80;;;;;;2383878;53;21961;-85
2022/04/11 06:47:13;;;;;;;3.00;1.50;;;7.70;47.20;;;;;;2380368;52;21581;-84
2022/04/11 06:49:39;;;;;;;4.18;1.20;;;7.90;48.50;;;;;;2636802;51;21888;-85
2022/04/11 06:52:07;;;;;;;2.90;1.40;;;8.20;49.90;;;;;;2653837;51;20983;-85
2022/04/11 06:54:33;;;;;;;3.28;1.50;;;8.80;51.30;;;;;;2659459;52;21018;-85
2022/04/11 06:56:59;;;;;;;2.97;1.37;;;9.30;52.50;;;;;;2653728;52;21085;-86
2022/04/11 06:59:26;;;;;;;2.78;1.52;;;9.90;51.90;;;;;;2383037;52;20922;-85
2022/04/11 07:01:52;;;;;;;3.17;1.42;;;10.50;50.70;;;;;;2649492;52;20994;-85
2022/04/11 07:04:22;;;;;;;3.15;1.33;;;11.00;50.40;;;;;;2643257;51;21441;-86
2022/04/11 07:06:48;;;;;;;2.87;1.48;;;11.50;50.40;;;;;;2654040;51;21916;-85
2022/04/11 07:09:15;;;;;;;5.28;1.45;;;12.00;50.90;;;;;;2660558;51;21774;-85
2022/04/11 07:11:41;;;;;;;3.22;1.60;;;12.50;51.20;;;;;;2661329;52;20903;-85
2022/04/11 07:14:08;;;;;;;3.72;1.60;;;13.10;51.20;;;;;;2661415;52;20876;-83
2022/04/11 07:16:34;;;;;;;3.05;1.55;;;13.70;50.90;;;;;;2660953;52;20916;-83
2022/04/11 07:19:00;;;;;;;3.78;1.50;;;14.20;50.30;;;;;;2629499;51;20977;-83
2022/04/11 07:21:26;;;;;;;2.72;1.50;;;14.70;49.90;;;;;;2652911;51;20939;-83
2022/04/11 07:23:53;;;;;;;4.05;1.90;;;15.10;49.50;;;;;;2380963;52;20952;-83
2022/04/11 07:26:19;;;;;;;2.97;1.48;;;15.60;49.60;;;;;;2396108;52;20973;-83
2022/04/11 07:28:47;;;;;;;2.78;1.55;;;16.10;49.80;;;;;;2658628;51;20926;-83
2022/04/11 07:31:13;;;;;;;2.87;1.15;;;16.60;49.80;;;;;;2379292;53;21084;-83
2022/04/11 07:33:40;;;;;;;3.20;1.25;;;17.10;49.80;;;;;;2630896;51;20927;-82
2022/04/11 07:36:06;;;;;;;3.40;1.25;;;17.60;50.10;;;;;;2660346;52;20907;-84
2022/04/11 07:38:33;;;;;;;2.78;1.27;;;18.10;48.90;;;;;;2402208;52;21006;-83
2022/04/11 07:40:59;;;;;;;4.30;1.40;;;18.50;47.80;;;;;;2659964;52;20922;-83
2022/04/11 07:43:25;;;;;;;3.17;1.33;;;18.70;46.40;;;;;;2401988;52;21715;-84
2022/04/11 07:45:52;;;;;;;2.67;1.27;;;18.90;45.00;;;;;;2401987;52;20955;-84
2022/04/11 07:48:18;;;;;;;2.35;1.40;;;18.80;43.80;;;;;;2660565;52;20896;-83
2022/04/11 07:50:44;;;;;;;3.00;1.20;;;18.70;42.90;;;;;;2646737;51;20922;-84
2022/04/11 07:53:11;;;;;;;3.17;1.48;;;18.50;42.30;;;;;;2392511;52;20987;-84
2022/04/11 07:55:37;;;;;;;4.68;1.70;;;18.30;41.80;;;;;;2395871;52;20988;-84
2022/04/11 07:58:04;;;;;;;4.47;1.80;;;18.10;41.30;;;;;;2388556;52;20883;-84
2022/04/11 08:00:30;;;;;;;4.10;1.90;;;17.80;41.00;;;;;;2659862;52;20970;-84
2022/04/11 08:02:57;;;;;;;3.55;1.45;;;17.60;41.10;;;;;;2404030;52;20919;-83
2022/04/11 08:05:24;;;;;;;4.07;1.50;;;17.30;40.90;;;;;;2380527;52;21851;-84
2022/04/11 08:07:50;;;;;;;3.10;1.52;;;17.10;41.00;;;;;;2401621;52;20966;-84
2022/04/11 08:10:16;;;;;;;3.85;1.52;;;17.00;41.20;;;;;;2402439;52;20947;-82
2022/04/11 08:12:56;;;;;;;3.45;1.75;;;16.90;41.40;;;;;;2660364;52;20899;-84
2022/04/11 08:15:22;;;;;;;3.25;1.40;;;16.80;41.20;;;;;;2402706;52;20935;-84
2022/04/11 08:17:49;;;;;;;3.45;1.52;;;16.70;41.40;;;;;;2639341;51;21013;-84
2022/04/11 08:20:15;;;;;;;4.07;1.48;;;16.70;42.30;;;;;;2653428;52;20899;-83
2022/04/11 08:22:43;;;;;;;2.87;1.30;;;16.60;41.50;;;;;;2660441;52;21514;-84
2022/04/11 08:25:10;;;;;;;3.67;1.30;;;16.60;41.40;;;;;;2660747;52;21018;-84
2022/04/11 08:27:36;;;;;;;2.75;1.20;;;16.60;41.40;;;;;;2396596;52;20958;-83
2022/04/11 08:30:04;;;;;;;2.58;1.20;;;16.60;41.30;;;;;;2642237;51;20986;-84
2022/04/11 08:33:30;;;;;;;2.58;1.10;;;16.50;41.30;;;;;;2660611;52;20946;-83
2022/04/11 08:35:57;;;;;;;3.80;1.50;;;16.50;41.00;;;;;;2659531;52;21219;-84
2022/04/11 08:38:23;;;;;;;3.25;1.10;;;16.50;41.20;;;;;;2660213;52;20907;-84
2022/04/11 08:40:50;;;;;;;2.30;1.00;;;16.50;41.20;;;;;;2402795;53;21626;-84
2022/04/11 08:43:17;;;;;;;2.08;0.80;;;16.50;41.30;;;;;;2660574;52;20915;-83
2022/04/11 08:45:44;;;;;;;3.53;1.25;;;16.50;41.30;;;;;;2633631;51;20950;-85
2022/04/11 08:48:11;;;;;;;3.00;1.05;;;16.60;41.40;;;;;;2403817;52;20907;-83
2022/04/11 08:50:37;;;;;;;3.03;1.20;;;16.60;41.30;;;;;;2402600;53;20891;-83
2022/04/11 08:53:03;;;;;;;3.10;0.90;;;16.70;41.50;;;;;;2402502;53;20931;-85
2022/04/11 08:55:30;;;;;;;1.90;0.80;;;16.80;41.80;;;;;;2660898;52;20911;-83
2022/04/11 08:57:58;;;;;;;2.67;1.05;;;16.90;41.80;;;;;;2661235;52;20958;-83
2022/04/11 09:00:24;;;;;;;2.67;1.10;;;17.00;41.60;;;;;;2383783;52;20930;-84
2022/04/11 09:02:51;;;;;;;2.70;0.90;;;17.20;42.20;;;;;;2380062;53;20986;-83
2022/04/11 09:05:22;;;;;;;3.15;1.10;;;17.30;41.60;;;;;;2659497;52;20955;-83
2022/04/11 09:07:58;;;;;;;2.80;1.10;;;17.40;41.50;;;;;;2400218;52;21014;-83
2022/04/11 09:10:26;;;;;;;2.22;0.80;;;17.60;41.50;;;;;;2658730;52;21035;-85
2022/04/11 09:12:56;;;;;;;3.03;1.10;;;17.70;41.60;;;;;;2660172;52;21025;-84
2022/04/11 09:15:26;;;;;;;3.00;0.80;;;17.80;41.30;;;;;;2402767;52;21219;-84
2022/04/11 09:17:53;;;;;;;2.65;1.20;;;17.90;41.40;;;;;;2381067;53;22079;-83
2022/04/11 09:20:27;;;;;;;2.17;0.70;;;18.00;41.40;;;;;;2658636;52;21010;-83
2022/04/11 09:22:54;;;;;;;2.20;0.90;;;18.20;41.50;;;;;;2647057;51;20910;-83
2022/04/11 09:25:22;;;;;;;3.00;0.80;;;18.30;41.40;;;;;;2404183;52;20974;-83
2022/04/11 09:27:49;;;;;;;2.05;0.82;;;18.50;41.10;;;;;;2400741;52;21281;-83
2022/04/11 09:30:27;;;;;;;2.17;0.82;;;18.60;40.90;;;;;;2402266;52;20930;-84
2022/04/11 09:33:04;;;;;;;2.92;1.08;;;18.70;40.50;;;;;;2659968;52;21867;-83
2022/04/11 09:35:38;;;;;;;2.45;1.02;;;18.80;40.50;;;;;;2659953;52;20974;-84
2022/04/11 09:38:15;;;;;;;3.55;0.90;;;18.90;40.60;;;;;;2402159;53;21387;-83
2022/04/11 09:40:49;;;;;;;2.15;0.80;;;19.00;39.90;;;;;;2660021;52;20939;-83
2022/04/11 09:43:17;;;;;;;1.80;0.70;;;19.10;40.20;;;;;;2382034;52;21798;-84
2022/04/11 09:45:45;;;;;;;2.05;0.75;;;19.10;40.10;;;;;;2659769;52;20999;-84
2022/04/11 09:48:16;;;;;;;1.83;0.77;;;19.20;39.80;;;;;;2401523;52;20923;-84
2022/04/11 09:50:43;;;;;;;1.67;0.70;;;19.30;39.90;;;;;;2658854;52;20898;-83
2022/04/11 09:53:10;;;;;;;1.90;0.80;;;19.30;40.10;;;;;;2658509;52;21230;-83
2022/04/11 09:55:36;;;;;;;2.33;0.80;;;19.40;39.80;;;;;;2657577;52;21043;-82
2022/04/11 09:58:04;;;;;;;1.37;0.57;;;19.60;39.90;;;;;;2399875;52;20899;-83
2022/04/11 10:00:32;;;;;;;2.12;0.80;;;19.70;39.80;;;;;;2379559;53;20922;-83
2022/04/11 10:02:59;;;;;;;2.03;0.70;;;19.90;39.80;;;;;;2645524;51;21490;-82
2022/04/11 10:05:25;;;;;;;1.52;0.60;;;20.00;39.70;;;;;;2641754;51;22221;-82
2022/04/11 10:07:55;;;;;;;1.92;0.70;;;20.10;39.50;;;;;;2638938;51;20930;-83
2022/04/11 10:10:24;;;;;;;1.98;0.70;;;20.30;39.50;;;;;;2394035;52;20899;-82
2022/04/11 10:12:53;;;;;;;2.12;0.60;;;20.60;39.50;;;;;;2643336;51;21484;-82
2022/04/11 10:15:22;;;;;;;1.77;0.65;;;20.70;39.40;;;;;;2379460;53;20975;-82
2022/04/11 10:17:51;;;;;;;2.00;0.67;;;20.90;39.30;;;;;;2400443;52;21745;-82
2022/04/11 10:20:30;;;;;;;1.52;0.60;;;21.00;39.20;;;;;;2651974;51;21493;-82
2022/04/11 10:23:11;;;;;;;1.55;0.50;;;21.10;38.60;;;;;;2399756;53;20907;-82
2022/04/11 10:25:43;;;;;;;1.90;0.65;;;21.20;38.80;;;;;;2399903;53;20899;-82
2022/04/11 10:28:25;;;;;;;2.28;0.77;;;21.20;38.50;;;;;;2658366;52;21175;-83
2022/04/11 10:31:10;;;;;;;2.13;0.73;;;21.30;37.50;;;;;;2658469;52;20895;-83
2022/04/11 10:35:38;;;;;;;1.67;0.60;;;21.30;37.60;;;;;;2650678;51;21790;-82
2022/04/11 10:38:06;;;;;;;1.37;0.50;;;21.40;38.00;;;;;;2400604;52;21062;-82
2022/04/11 10:40:33;;;;;;;3.45;0.60;;;21.40;37.80;;;;;;2400099;53;20915;-83
2022/04/11 10:43:17;;;;;;;1.45;0.62;;;21.40;37.70;;;;;;2640777;51;20930;-82
2022/04/11 10:45:57;;;;;;;2.37;0.85;;;21.40;36.90;;;;;;2621881;52;21043;-82
2022/04/11 10:50:19;;;;;;;2.50;0.70;;;21.40;37.30;;;;;;2658769;52;21010;-82
2022/04/11 10:52:46;;;;;;;2.92;0.93;;;21.40;37.70;;;;;;2658322;52;20907;-85
2022/04/11 10:55:18;;;;;;;1.37;0.60;;;21.50;37.90;;;;;;2663432;52;20947;-84
2022/04/11 10:57:55;;;;;;;1.70;0.70;;;21.50;37.50;;;;;;2659487;52;21291;-84
2022/04/11 11:00:32;;;;;;;1.85;0.75;;;21.50;37.20;;;;;;2384774;52;20946;-85
2022/04/11 11:03:04;;;;;;;2.25;0.90;;;21.60;36.80;;;;;;2404965;52;20982;-83
2022/04/11 11:05:51;;;;;;;;;;;21.60;37.00;;;;;;2397803;52;20925;-84
2022/04/11 11:08:27;;;;;;;1.95;0.70;;;21.60;37.30;;;;;;2626997;52;20116;-82
2022/04/11 11:10:55;;;;;;;2.58;0.55;;;21.70;37.30;;;;;;2661872;52;20946;-81
2022/04/11 11:13:40;;;;;;;2.80;0.85;;;21.60;37.40;;;;;;2661135;52;20959;-82
2022/04/11 11:16:34;;;;;;;2.50;0.80;;;21.70;36.90;;;;;;2657453;52;20995;-83
2022/04/11 11:19:18;;;;;;;1.98;0.77;;;21.80;36.90;;;;;;2662023;52;20983;-82
2022/04/11 11:22:05;;;;;;;1.73;0.80;;;21.80;37.40;;;;;;2655137;51;20912;-82
2022/04/11 11:24:33;;;;;;;2.03;0.82;;;21.90;36.70;;;;;;2661187;51;21437;-84
2022/04/11 11:27:03;;;;;;;1.90;0.70;;;21.90;37.30;;;;;;2381809;53;20950;-86
2022/04/11 11:29:44;;;;;;;2.03;0.88;;;22.00;37.30;;;;;;2657356;51;21021;-83
2022/04/11 11:32:12;;;;;;;2.40;1.10;;;22.00;36.50;;;;;;2659819;51;20903;-84
2022/04/11 11:34:39;;;;;;;2.10;0.70;;;22.10;36.90;;;;;;2644178;51;20949;-85
2022/04/11 11:37:10;;;;;;;2.35;0.73;;;22.20;36.90;;;;;;2653375;51;20903;-83
2022/04/11 11:39:41;;;;;;;2.60;0.80;;;22.30;36.60;;;;;;2403059;52;21540;-85
2022/04/11 11:42:14;;;;;;;3.17;0.88;;;22.30;36.70;;;;;;2404054;52;21769;-83
2022/04/11 11:44:56;;;;;;;3.40;0.90;;;22.30;36.40;;;;;;2659874;52;20923;-83
2022/04/11 11:47:26;;;;;;;3.35;1.00;;;22.30;36.10;;;;;;2407400;52;20939;-82
2022/04/11 11:49:59;;;;;;;2.45;0.90;;;22.30;36.00;;;;;;2403319;52;21885;-83
2022/04/11 11:52:25;;;;;;;1.55;0.70;;;22.30;36.20;;;;;;2661723;52;21062;-83
2022/04/11 11:54:52;;;;;;;2.78;0.90;;;22.30;36.20;;;;;;2638869;51;20882;-82
2022/04/11 11:57:22;;;;;;;2.67;0.90;;;22.30;35.70;;;;;;2638328;51;20926;-82
2022/04/11 12:00:11;;;;;;;2.25;0.88;;;22.40;35.70;;;;;;2640648;51;21560;-82
2022/04/11 12:05:30;;;;;;;3.08;1.10;;;22.40;35.90;;;;;;2361695;53;20911;-82
2022/04/11 12:08:30;;;;;;;1.27;0.60;;;22.40;35.30;;;;;;2658850;52;20895;-81
2022/04/11 12:11:00;;;;;;;3.33;0.82;;;22.40;35.30;;;;;;2379395;53;20935;-82
2022/04/11 12:13:31;;;;;;;2.90;0.73;;;22.40;35.70;;;;;;2400337;52;21470;-83
2022/04/11 12:16:07;;;;;;;2.05;0.70;;;22.40;35.70;;;;;;2629532;52;20907;-84
2022/04/11 12:18:54;;;;;;;1.67;0.68;;;22.40;35.20;;;;;;2661955;52;20887;-85
2022/04/11 12:21:34;;;;;;;1.65;0.70;;;22.40;35.00;;;;;;2403736;52;21441;-83
2022/04/11 12:24:01;;;;;;;2.28;0.80;;;22.50;35.30;;;;;;2660018;52;21918;-82
2022/04/11 12:26:38;;;;;;;1.95;0.73;;;22.60;35.60;;;;;;2407681;52;20939;-84
2022/04/11 12:29:14;;;;;;;2.37;1.00;;;22.60;35.40;;;;;;2661571;52;20892;-84
2022/04/11 12:31:59;;;;;;;3.20;0.90;;;22.60;35.50;;;;;;2653951;51;20999;-82
2022/04/11 12:34:35;;;;;;;2.78;0.75;;;22.70;35.30;;;;;;2659269;51;20918;-87
2022/04/11 12:37:02;;;;;;;1.83;0.80;;;22.80;35.30;;;;;;2658980;52;21427;-82
2022/04/11 12:39:29;;;;;;;1.62;0.62;;;22.80;35.30;;;;;;2402722;52;20999;-84
2022/04/11 12:41:55;;;;;;;2.10;0.75;;;22.80;35.50;;;;;;2402658;52;20899;-83
2022/04/11 12:44:32;;;;;;;1.75;0.65;;;22.90;35.60;;;;;;2402771;53;20919;-85
2022/04/11 12:47:08;;;;;;;1.98;0.73;;;22.90;35.40;;;;;;2652706;51;20904;-86
2022/04/11 12:49:48;;;;;;;1.83;0.62;;;23.00;34.80;;;;;;2645276;51;21018;-84
2022/04/11 12:52:19;;;;;;;2.30;0.80;;;23.00;34.60;;;;;;2648515;51;20927;-85
2022/04/11 12:54:52;;;;;;;1.92;0.77;;;23.00;35.00;;;;;;2660201;52;20930;-87
2022/04/11 12:57:26;;;;;;;2.75;0.80;;;23.00;35.10;;;;;;2385916;52;20941;-85
2022/04/11 12:59:52;;;;;;;1.77;0.60;;;23.00;35.00;;;;;;2631796;51;21313;-85
2022/04/11 13:02:20;;;;;;;2.45;0.80;;;23.10;35.00;;;;;;2395052;52;21362;-83
2022/04/11 13:04:52;;;;;;;1.55;0.57;;;23.10;34.70;;;;;;2401239;53;20986;-86